Weather Data

Pearl Creek Farm: 8878 N Farm Road 75, Walnut Grove MO 65770

<== Previous Day (Saturday 02 Jun 2018) | Next Day (Monday 04 Jun 2018) ==>

Summary Precipitation Data For Sunday 03 June 2018

ElementValueUnits
Precipitation0"
NotesThis observation includes multiple day totals starting on 02 June 2018.
SourcePearl Creek Farm

Summary Temperature Data For Sunday 03 June 2018

ElementValueUnits
High Temperature83 oF
Low Temperature58 oF
Average Temperature72 oF
High Humidity87 %
Low Humidity30 %
Average Humidity56 %
SourceSpringfield-Branson National Airport (SGF)

Detail Temperature Data For Sunday 03 June 2018

Date / TimeTemp (F)RH (%)Dew Pt (F)Report Date / TimeSource
2018-06-03 16:52:00 81 35 51.0 2019-02-02 11:24:24.260017 Springfield-Branson National Airport (SGF)
2018-06-03 00:52:00 65 78 58.0 2019-02-02 11:24:24.260017 Springfield-Branson National Airport (SGF)
2018-06-03 01:52:00 62 80 56.0 2019-02-02 11:24:24.260017 Springfield-Branson National Airport (SGF)
2018-06-03 02:52:00 60 80 54.0 2019-02-02 11:24:24.260017 Springfield-Branson National Airport (SGF)
2018-06-03 03:52:00 58 87 54.0 2019-02-02 11:24:24.260017 Springfield-Branson National Airport (SGF)
2018-06-03 04:52:00 60 80 54.0 2019-02-02 11:24:24.260017 Springfield-Branson National Airport (SGF)
2018-06-03 05:52:00 61 84 56.0 2019-02-02 11:24:24.260017 Springfield-Branson National Airport (SGF)
2018-06-03 06:52:00 66 73 57.0 2019-02-02 11:24:24.260017 Springfield-Branson National Airport (SGF)
2018-06-03 07:52:00 71 63 58.0 2019-02-02 11:24:24.260017 Springfield-Branson National Airport (SGF)
2018-06-03 08:52:00 76 48 55.0 2019-02-02 11:24:24.260017 Springfield-Branson National Airport (SGF)
2018-06-03 09:52:00 78 39 51.0 2019-02-02 11:24:24.260017 Springfield-Branson National Airport (SGF)
2018-06-03 10:52:00 81 33 49.0 2019-02-02 11:24:24.260017 Springfield-Branson National Airport (SGF)
2018-06-03 11:52:00 83 30 48.0 2019-02-02 11:24:24.260017 Springfield-Branson National Airport (SGF)
2018-06-03 12:52:00 83 30 48.0 2019-02-02 11:24:24.260017 Springfield-Branson National Airport (SGF)
2018-06-03 13:52:00 83 32 50.0 2019-02-02 11:24:24.260017 Springfield-Branson National Airport (SGF)
2018-06-03 14:52:00 83 33 51.0 2019-02-02 11:24:24.260017 Springfield-Branson National Airport (SGF)
2018-06-03 15:52:00 83 34 52.0 2019-02-02 11:24:24.260017 Springfield-Branson National Airport (SGF)
2018-06-03 17:52:00 80 37 51.0 2019-02-02 11:24:24.260017 Springfield-Branson National Airport (SGF)
2018-06-03 18:52:00 77 43 53.0 2019-02-02 11:24:24.260017 Springfield-Branson National Airport (SGF)
2018-06-03 19:52:00 75 45 52.0 2019-02-02 11:24:24.260017 Springfield-Branson National Airport (SGF)
2018-06-03 20:52:00 65 68 54.0 2019-02-02 11:24:24.260017 Springfield-Branson National Airport (SGF)
2018-06-03 21:52:00 63 73 54.0 2019-02-02 11:24:24.260017 Springfield-Branson National Airport (SGF)
2018-06-03 22:52:00 62 73 53.0 2019-02-02 11:24:24.260017 Springfield-Branson National Airport (SGF)
2018-06-03 23:52:00 60 75 52.0 2019-02-02 11:24:24.260017 Springfield-Branson National Airport (SGF)

A total of 24 rows are displayed.